sensor_id;sensor_type;location;lat;lon;timestamp;pressure;altitude;pressure_sealevel;temperature;humidity
64139;BME280;50435;43.700;-79.318;2023-02-28T00:00:11;98695.48;;;-0.34;46.90
64139;BME280;50435;43.700;-79.318;2023-02-28T00:02:40;98685.90;;;0.24;46.78
64139;BME280;50435;43.700;-79.318;2023-02-28T00:05:10;98668.48;;;0.05;46.70
64139;BME280;50435;43.700;-79.318;2023-02-28T00:07:38;98649.85;;;-0.33;46.90
64139;BME280;50435;43.700;-79.318;2023-02-28T00:10:08;98645.12;;;-0.38;47.08
64139;BME280;50435;43.700;-79.318;2023-02-28T00:12:36;98624.65;;;-0.41;47.05
64139;BME280;50435;43.700;-79.318;2023-02-28T00:15:06;98619.12;;;-0.30;47.04
64139;BME280;50435;43.700;-79.318;2023-02-28T00:17:35;98610.37;;;0.16;46.99
64139;BME280;50435;43.700;-79.318;2023-02-28T00:20:04;98586.28;;;-0.27;46.96
64139;BME280;50435;43.700;-79.318;2023-02-28T00:22:33;98599.22;;;-0.09;47.16
64139;BME280;50435;43.700;-79.318;2023-02-28T00:25:00;98601.30;;;0.07;46.86
64139;BME280;50435;43.700;-79.318;2023-02-28T00:27:28;98597.04;;;-0.26;46.86
64139;BME280;50435;43.700;-79.318;2023-02-28T00:29:55;98587.41;;;0.23;46.92
64139;BME280;50435;43.700;-79.318;2023-02-28T00:32:22;98576.69;;;-0.15;46.80
64139;BME280;50435;43.700;-79.318;2023-02-28T00:34:50;98553.94;;;-0.32;47.07
64139;BME280;50435;43.700;-79.318;2023-02-28T00:37:17;98557.61;;;-0.06;47.12
64139;BME280;50435;43.700;-79.318;2023-02-28T00:39:45;98549.50;;;0.06;47.04
64139;BME280;50435;43.700;-79.318;2023-02-28T00:42:12;98540.87;;;0.02;46.99
64139;BME280;50435;43.700;-79.318;2023-02-28T00:44:39;98555.89;;;-0.02;47.29
64139;BME280;50435;43.700;-79.318;2023-02-28T00:47:07;98564.07;;;-0.29;47.27
64139;BME280;50435;43.700;-79.318;2023-02-28T00:49:34;98549.71;;;0.03;47.12
64139;BME280;50435;43.700;-79.318;2023-02-28T00:52:01;98570.89;;;-0.14;47.08
64139;BME280;50435;43.700;-79.318;2023-02-28T00:54:29;98561.87;;;-0.21;47.30
64139;BME280;50435;43.700;-79.318;2023-02-28T00:56:56;98558.84;;;0.10;47.18
64139;BME280;50435;43.700;-79.318;2023-02-28T00:59:24;98558.71;;;-0.23;47.29
64139;BME280;50435;43.700;-79.318;2023-02-28T01:01:52;98562.15;;;0.06;47.17
64139;BME280;50435;43.700;-79.318;2023-02-28T01:04:19;98563.92;;;-0.04;46.90
64139;BME280;50435;43.700;-79.318;2023-02-28T01:06:47;98562.22;;;-0.25;47.22
64139;BME280;50435;43.700;-79.318;2023-02-28T01:09:14;98556.64;;;-0.09;47.09
64139;BME280;50435;43.700;-79.318;2023-02-28T01:11:42;98561.42;;;-0.03;46.73
64139;BME280;50435;43.700;-79.318;2023-02-28T01:14:17;98562.24;;;0.16;47.13
64139;BME280;50435;43.700;-79.318;2023-02-28T01:16:45;98563.25;;;0.13;47.11
64139;BME280;50435;43.700;-79.318;2023-02-28T01:19:13;98568.51;;;-0.15;47.06
64139;BME280;50435;43.700;-79.318;2023-02-28T01:21:40;98565.33;;;-0.09;47.12
64139;BME280;50435;43.700;-79.318;2023-02-28T01:24:07;98556.87;;;0.06;46.90
64139;BME280;50435;43.700;-79.318;2023-02-28T01:26:35;98543.85;;;-0.02;46.97
64139;BME280;50435;43.700;-79.318;2023-02-28T01:29:02;98557.55;;;-0.02;47.04
64139;BME280;50435;43.700;-79.318;2023-02-28T01:31:30;98538.27;;;0.21;46.95
64139;BME280;50435;43.700;-79.318;2023-02-28T01:33:58;98533.38;;;0.30;47.22
64139;BME280;50435;43.700;-79.318;2023-02-28T01:36:26;98526.57;;;0.04;47.51
64139;BME280;50435;43.700;-79.318;2023-02-28T01:38:53;98524.58;;;-0.00;47.23
64139;BME280;50435;43.700;-79.318;2023-02-28T01:41:23;98513.24;;;-0.03;47.14
64139;BME280;50435;43.700;-79.318;2023-02-28T01:43:56;98508.59;;;0.04;47.14
64139;BME280;50435;43.700;-79.318;2023-02-28T01:46:24;98492.81;;;0.16;47.40
64139;BME280;50435;43.700;-79.318;2023-02-28T01:48:56;98488.38;;;-0.10;47.36
64139;BME280;50435;43.700;-79.318;2023-02-28T01:51:30;98477.71;;;-0.07;47.38
64139;BME280;50435;43.700;-79.318;2023-02-28T01:54:02;98460.99;;;-0.06;47.38
64139;BME280;50435;43.700;-79.318;2023-02-28T01:56:33;98458.31;;;0.44;47.59
64139;BME280;50435;43.700;-79.318;2023-02-28T01:59:03;98448.74;;;-0.02;47.27
64139;BME280;50435;43.700;-79.318;2023-02-28T02:01:31;98440.31;;;-0.00;47.35
64139;BME280;50435;43.700;-79.318;2023-02-28T02:04:01;98454.75;;;0.46;47.57
64139;BME280;50435;43.700;-79.318;2023-02-28T02:06:37;98445.16;;;0.06;47.66
64139;BME280;50435;43.700;-79.318;2023-02-28T02:09:05;98451.60;;;-0.13;47.75
64139;BME280;50435;43.700;-79.318;2023-02-28T02:11:32;98455.54;;;0.36;47.25
64139;BME280;50435;43.700;-79.318;2023-02-28T02:14:17;98453.53;;;0.11;47.09
64139;BME280;50435;43.700;-79.318;2023-02-28T02:16:59;98441.07;;;-0.08;47.59
64139;BME280;50435;43.700;-79.318;2023-02-28T02:19:51;98436.30;;;0.10;47.16
64139;BME280;50435;43.700;-79.318;2023-02-28T02:22:41;98430.52;;;0.06;47.24
64139;BME280;50435;43.700;-79.318;2023-02-28T02:25:22;98447.65;;;0.02;47.33
64139;BME280;50435;43.700;-79.318;2023-02-28T02:30:09;98422.75;;;0.54;47.29
64139;BME280;50435;43.700;-79.318;2023-02-28T02:35:40;98396.53;;;0.62;47.61
64139;BME280;50435;43.700;-79.318;2023-02-28T02:38:15;98393.11;;;0.10;47.33
64139;BME280;50435;43.700;-79.318;2023-02-28T02:40:52;98386.51;;;0.35;47.38
64139;BME280;50435;43.700;-79.318;2023-02-28T02:43:26;98380.55;;;0.31;47.40
64139;BME280;50435;43.700;-79.318;2023-02-28T02:45:58;98381.50;;;0.01;47.60
64139;BME280;50435;43.700;-79.318;2023-02-28T02:48:29;98396.64;;;0.06;47.49
64139;BME280;50435;43.700;-79.318;2023-02-28T02:51:00;98386.63;;;0.50;47.63
64139;BME280;50435;43.700;-79.318;2023-02-28T02:53:32;98386.73;;;0.48;47.74
64139;BME280;50435;43.700;-79.318;2023-02-28T02:56:01;98356.76;;;0.19;47.90
64139;BME280;50435;43.700;-79.318;2023-02-28T02:58:33;98362.14;;;0.08;47.82
64139;BME280;50435;43.700;-79.318;2023-02-28T03:01:04;98351.94;;;0.08;47.70
64139;BME280;50435;43.700;-79.318;2023-02-28T03:03:33;98350.72;;;0.47;47.76
64139;BME280;50435;43.700;-79.318;2023-02-28T03:06:01;98346.11;;;0.22;47.44
64139;BME280;50435;43.700;-79.318;2023-02-28T03:08:33;98361.34;;;0.60;47.55
64139;BME280;50435;43.700;-79.318;2023-02-28T03:11:02;98346.18;;;0.14;47.41
64139;BME280;50435;43.700;-79.318;2023-02-28T03:13:50;98345.35;;;0.02;48.11
64139;BME280;50435;43.700;-79.318;2023-02-28T03:16:31;98334.19;;;0.49;48.13
64139;BME280;50435;43.700;-79.318;2023-02-28T03:19:09;98327.19;;;0.16;48.34
64139;BME280;50435;43.700;-79.318;2023-02-28T03:21:43;98341.04;;;0.04;48.08
64139;BME280;50435;43.700;-79.318;2023-02-28T03:24:19;98346.23;;;0.13;47.76
64139;BME280;50435;43.700;-79.318;2023-02-28T03:26:55;98333.71;;;0.45;47.56
64139;BME280;50435;43.700;-79.318;2023-02-28T03:29:30;98341.04;;;0.51;47.64
64139;BME280;50435;43.700;-79.318;2023-02-28T03:32:03;98307.42;;;0.09;48.00
64139;BME280;50435;43.700;-79.318;2023-02-28T03:34:34;98318.25;;;0.07;47.96
64139;BME280;50435;43.700;-79.318;2023-02-28T03:37:07;98316.74;;;0.35;48.18
64139;BME280;50435;43.700;-79.318;2023-02-28T03:39:39;98312.65;;;0.10;48.02
64139;BME280;50435;43.700;-79.318;2023-02-28T03:42:12;98306.60;;;0.14;48.06
64139;BME280;50435;43.700;-79.318;2023-02-28T03:44:43;98305.85;;;0.17;47.96
64139;BME280;50435;43.700;-79.318;2023-02-28T03:47:14;98301.43;;;0.05;48.27
64139;BME280;50435;43.700;-79.318;2023-02-28T03:49:47;98291.81;;;0.17;48.02
64139;BME280;50435;43.700;-79.318;2023-02-28T03:52:17;98286.82;;;0.13;48.08
64139;BME280;50435;43.700;-79.318;2023-02-28T03:54:50;98274.31;;;0.28;47.70
64139;BME280;50435;43.700;-79.318;2023-02-28T03:57:25;98281.68;;;0.19;48.12
64139;BME280;50435;43.700;-79.318;2023-02-28T03:59:59;98288.36;;;0.24;47.90
64139;BME280;50435;43.700;-79.318;2023-02-28T04:02:27;98271.45;;;0.22;47.96
64139;BME280;50435;43.700;-79.318;2023-02-28T04:04:55;98265.99;;;0.42;48.16
64139;BME280;50435;43.700;-79.318;2023-02-28T04:07:22;98280.48;;;0.21;48.37
64139;BME280;50435;43.700;-79.318;2023-02-28T04:09:50;98281.22;;;0.25;48.02
64139;BME280;50435;43.700;-79.318;2023-02-28T04:12:17;98282.01;;;0.23;48.06
64139;BME280;50435;43.700;-79.318;2023-02-28T04:14:44;98295.51;;;0.79;47.98
64139;BME280;50435;43.700;-79.318;2023-02-28T04:17:12;98282.84;;;0.22;48.31
64139;BME280;50435;43.700;-79.318;2023-02-28T04:19:39;98270.64;;;0.50;48.34
64139;BME280;50435;43.700;-79.318;2023-02-28T04:22:08;98252.66;;;0.28;48.26
64139;BME280;50435;43.700;-79.318;2023-02-28T04:24:36;98255.59;;;0.22;48.39
64139;BME280;50435;43.700;-79.318;2023-02-28T04:27:04;98262.20;;;0.19;48.50
64139;BME280;50435;43.700;-79.318;2023-02-28T04:29:32;98266.11;;;0.53;48.53
64139;BME280;50435;43.700;-79.318;2023-02-28T04:32:01;98273.24;;;0.29;48.30
64139;BME280;50435;43.700;-79.318;2023-02-28T04:34:30;98250.48;;;0.53;48.59
64139;BME280;50435;43.700;-79.318;2023-02-28T04:36:58;98262.46;;;0.56;48.82
64139;BME280;50435;43.700;-79.318;2023-02-28T04:39:26;98255.71;;;0.32;48.90
64139;BME280;50435;43.700;-79.318;2023-02-28T04:41:54;98261.71;;;0.28;48.65
64139;BME280;50435;43.700;-79.318;2023-02-28T04:44:21;98251.36;;;0.30;48.91
64139;BME280;50435;43.700;-79.318;2023-02-28T04:46:49;98239.79;;;0.42;48.85
64139;BME280;50435;43.700;-79.318;2023-02-28T04:49:17;98238.38;;;0.70;48.93
64139;BME280;50435;43.700;-79.318;2023-02-28T04:51:44;98233.40;;;0.46;48.90
64139;BME280;50435;43.700;-79.318;2023-02-28T04:54:11;98227.23;;;0.41;48.92
64139;BME280;50435;43.700;-79.318;2023-02-28T04:56:39;98227.61;;;0.41;48.93
64139;BME280;50435;43.700;-79.318;2023-02-28T04:59:07;98232.66;;;0.40;49.30
64139;BME280;50435;43.700;-79.318;2023-02-28T05:01:34;98224.82;;;0.55;48.85
64139;BME280;50435;43.700;-79.318;2023-02-28T05:04:04;98224.43;;;0.64;48.81
64139;BME280;50435;43.700;-79.318;2023-02-28T05:06:32;98220.48;;;1.02;48.99
64139;BME280;50435;43.700;-79.318;2023-02-28T05:09:00;98210.29;;;0.55;49.10
64139;BME280;50435;43.700;-79.318;2023-02-28T05:11:29;98211.74;;;0.57;49.06
64139;BME280;50435;43.700;-79.318;2023-02-28T05:13:57;98208.46;;;0.58;49.18
64139;BME280;50435;43.700;-79.318;2023-02-28T05:16:24;98215.55;;;0.62;49.28
64139;BME280;50435;43.700;-79.318;2023-02-28T05:18:51;98214.44;;;0.58;49.26
64139;BME280;50435;43.700;-79.318;2023-02-28T05:21:25;98217.78;;;0.61;49.29
64139;BME280;50435;43.700;-79.318;2023-02-28T05:23:55;98220.67;;;0.61;49.18
64139;BME280;50435;43.700;-79.318;2023-02-28T05:26:24;98217.19;;;0.62;49.26
64139;BME280;50435;43.700;-79.318;2023-02-28T05:28:51;98201.26;;;0.61;49.13
64139;BME280;50435;43.700;-79.318;2023-02-28T05:31:21;98215.60;;;0.64;49.07
64139;BME280;50435;43.700;-79.318;2023-02-28T05:33:49;98210.47;;;0.56;49.17
64139;BME280;50435;43.700;-79.318;2023-02-28T05:36:16;98215.76;;;0.53;49.37
64139;BME280;50435;43.700;-79.318;2023-02-28T05:38:47;98209.92;;;0.62;49.11
64139;BME280;50435;43.700;-79.318;2023-02-28T05:41:14;98218.70;;;0.62;49.26
64139;BME280;50435;43.700;-79.318;2023-02-28T05:43:42;98217.22;;;0.64;49.27
64139;BME280;50435;43.700;-79.318;2023-02-28T05:46:11;98219.74;;;0.72;49.27
64139;BME280;50435;43.700;-79.318;2023-02-28T05:48:40;98213.24;;;0.72;49.26
64139;BME280;50435;43.700;-79.318;2023-02-28T05:51:09;98208.70;;;0.75;49.19
64139;BME280;50435;43.700;-79.318;2023-02-28T05:53:37;98196.12;;;0.77;49.14
64139;BME280;50435;43.700;-79.318;2023-02-28T05:56:05;98190.94;;;0.75;49.23
64139;BME280;50435;43.700;-79.318;2023-02-28T05:58:33;98179.29;;;0.82;49.08
64139;BME280;50435;43.700;-79.318;2023-02-28T06:01:20;98173.74;;;0.77;49.35
64139;BME280;50435;43.700;-79.318;2023-02-28T06:03:48;98161.30;;;0.78;49.33
64139;BME280;50435;43.700;-79.318;2023-02-28T06:06:16;98148.53;;;0.54;49.59
64139;BME280;50435;43.700;-79.318;2023-02-28T06:08:43;98162.94;;;0.57;49.53
64139;BME280;50435;43.700;-79.318;2023-02-28T06:11:10;98160.22;;;0.81;49.43
64139;BME280;50435;43.700;-79.318;2023-02-28T06:13:38;98163.37;;;0.83;49.20
64139;BME280;50435;43.700;-79.318;2023-02-28T06:16:06;98164.78;;;0.83;49.34
64139;BME280;50435;43.700;-79.318;2023-02-28T06:18:33;98184.05;;;0.83;49.32
64139;BME280;50435;43.700;-79.318;2023-02-28T06:21:01;98185.69;;;0.73;49.48
64139;BME280;50435;43.700;-79.318;2023-02-28T06:23:28;98170.70;;;0.72;49.61
64139;BME280;50435;43.700;-79.318;2023-02-28T06:25:55;98173.95;;;0.73;49.41
64139;BME280;50435;43.700;-79.318;2023-02-28T06:28:23;98158.21;;;1.02;49.41
64139;BME280;50435;43.700;-79.318;2023-02-28T06:30:51;98154.50;;;0.77;49.51
64139;BME280;50435;43.700;-79.318;2023-02-28T06:33:18;98150.15;;;0.76;49.61
64139;BME280;50435;43.700;-79.318;2023-02-28T06:35:47;98161.27;;;0.75;49.79
64139;BME280;50435;43.700;-79.318;2023-02-28T06:38:17;98154.51;;;0.54;49.72
64139;BME280;50435;43.700;-79.318;2023-02-28T06:40:44;98144.88;;;0.69;49.93
64139;BME280;50435;43.700;-79.318;2023-02-28T06:43:11;98146.18;;;0.80;49.69
64139;BME280;50435;43.700;-79.318;2023-02-28T06:45:42;98160.85;;;0.79;49.60
64139;BME280;50435;43.700;-79.318;2023-02-28T06:48:10;98183.36;;;0.82;49.65
64139;BME280;50435;43.700;-79.318;2023-02-28T06:50:37;98186.62;;;0.82;49.59
64139;BME280;50435;43.700;-79.318;2023-02-28T06:53:04;98193.30;;;0.86;49.69
64139;BME280;50435;43.700;-79.318;2023-02-28T06:55:32;98186.63;;;0.90;49.65
64139;BME280;50435;43.700;-79.318;2023-02-28T06:57:59;98181.33;;;0.83;49.70
64139;BME280;50435;43.700;-79.318;2023-02-28T07:00:27;98177.02;;;0.91;49.62
64139;BME280;50435;43.700;-79.318;2023-02-28T07:02:54;98188.67;;;0.83;50.06
64139;BME280;50435;43.700;-79.318;2023-02-28T07:05:21;98192.63;;;0.90;49.77
64139;BME280;50435;43.700;-79.318;2023-02-28T07:07:49;98190.26;;;0.97;49.73
64139;BME280;50435;43.700;-79.318;2023-02-28T07:10:16;98190.43;;;0.91;49.76
64139;BME280;50435;43.700;-79.318;2023-02-28T07:12:44;98181.91;;;0.83;49.75
64139;BME280;50435;43.700;-79.318;2023-02-28T07:15:11;98171.64;;;1.13;49.61
64139;BME280;50435;43.700;-79.318;2023-02-28T07:17:39;98157.64;;;1.02;49.84
64139;BME280;50435;43.700;-79.318;2023-02-28T07:20:07;98149.26;;;0.75;49.94
64139;BME280;50435;43.700;-79.318;2023-02-28T07:22:35;98147.74;;;0.78;50.03
64139;BME280;50435;43.700;-79.318;2023-02-28T07:25:03;98148.27;;;0.56;50.10
64139;BME280;50435;43.700;-79.318;2023-02-28T07:27:31;98152.05;;;0.74;50.04
64139;BME280;50435;43.700;-79.318;2023-02-28T07:29:58;98148.45;;;0.96;49.80
64139;BME280;50435;43.700;-79.318;2023-02-28T07:32:26;98148.70;;;1.13;49.84
64139;BME280;50435;43.700;-79.318;2023-02-28T07:34:53;98138.71;;;0.89;50.11
64139;BME280;50435;43.700;-79.318;2023-02-28T07:37:21;98127.59;;;1.12;50.29
64139;BME280;50435;43.700;-79.318;2023-02-28T07:39:48;98136.71;;;1.06;50.34
64139;BME280;50435;43.700;-79.318;2023-02-28T07:42:15;98142.48;;;0.81;50.19
64139;BME280;50435;43.700;-79.318;2023-02-28T07:44:43;98143.53;;;1.08;50.19
64139;BME280;50435;43.700;-79.318;2023-02-28T07:47:10;98151.17;;;0.59;50.22
64139;BME280;50435;43.700;-79.318;2023-02-28T07:49:39;98167.62;;;0.68;49.92
64139;BME280;50435;43.700;-79.318;2023-02-28T07:52:07;98173.83;;;0.68;49.93
64139;BME280;50435;43.700;-79.318;2023-02-28T07:54:34;98176.28;;;1.10;49.86
64139;BME280;50435;43.700;-79.318;2023-02-28T07:57:02;98185.57;;;0.96;49.78
64139;BME280;50435;43.700;-79.318;2023-02-28T07:59:29;98184.94;;;0.93;49.70
64139;BME280;50435;43.700;-79.318;2023-02-28T08:01:57;98184.09;;;0.95;49.70
64139;BME280;50435;43.700;-79.318;2023-02-28T08:04:26;98179.13;;;0.89;49.77
64139;BME280;50435;43.700;-79.318;2023-02-28T08:06:53;98173.35;;;0.91;49.81
64139;BME280;50435;43.700;-79.318;2023-02-28T08:09:20;98170.15;;;0.88;49.88
64139;BME280;50435;43.700;-79.318;2023-02-28T08:11:48;98164.73;;;0.96;49.64
64139;BME280;50435;43.700;-79.318;2023-02-28T08:14:15;98174.72;;;0.92;49.73
64139;BME280;50435;43.700;-79.318;2023-02-28T08:16:43;98166.00;;;0.91;50.06
64139;BME280;50435;43.700;-79.318;2023-02-28T08:19:10;98169.58;;;1.12;49.41
64139;BME280;50435;43.700;-79.318;2023-02-28T08:21:37;98176.16;;;0.94;49.96
64139;BME280;50435;43.700;-79.318;2023-02-28T08:24:05;98177.92;;;0.86;50.14
64139;BME280;50435;43.700;-79.318;2023-02-28T08:26:33;98176.07;;;0.88;49.97
64139;BME280;50435;43.700;-79.318;2023-02-28T08:29:01;98177.34;;;1.12;49.92
64139;BME280;50435;43.700;-79.318;2023-02-28T08:31:28;98172.33;;;0.82;50.20
64139;BME280;50435;43.700;-79.318;2023-02-28T08:33:55;98173.58;;;1.08;50.21
64139;BME280;50435;43.700;-79.318;2023-02-28T08:36:24;98168.85;;;1.14;49.87
64139;BME280;50435;43.700;-79.318;2023-02-28T08:38:51;98169.20;;;0.91;49.93
64139;BME280;50435;43.700;-79.318;2023-02-28T08:41:19;98158.52;;;0.67;50.11
64139;BME280;50435;43.700;-79.318;2023-02-28T08:43:46;98162.54;;;1.16;50.00
64139;BME280;50435;43.700;-79.318;2023-02-28T08:46:14;98162.70;;;1.15;50.07
64139;BME280;50435;43.700;-79.318;2023-02-28T08:48:42;98162.62;;;0.87;50.11
64139;BME280;50435;43.700;-79.318;2023-02-28T08:51:12;98156.00;;;0.71;49.96
64139;BME280;50435;43.700;-79.318;2023-02-28T08:53:40;98149.29;;;1.19;49.69
64139;BME280;50435;43.700;-79.318;2023-02-28T08:56:09;98140.63;;;1.20;49.96
64139;BME280;50435;43.700;-79.318;2023-02-28T08:58:37;98141.59;;;0.95;49.99
64139;BME280;50435;43.700;-79.318;2023-02-28T09:01:09;98146.87;;;1.17;49.94
64139;BME280;50435;43.700;-79.318;2023-02-28T09:03:38;98144.15;;;0.96;49.79
64139;BME280;50435;43.700;-79.318;2023-02-28T09:06:05;98146.09;;;0.96;49.96
64139;BME280;50435;43.700;-79.318;2023-02-28T09:08:33;98137.08;;;1.20;49.62
64139;BME280;50435;43.700;-79.318;2023-02-28T09:11:01;98132.44;;;1.20;49.78
64139;BME280;50435;43.700;-79.318;2023-02-28T09:13:29;98131.61;;;1.00;49.54
64139;BME280;50435;43.700;-79.318;2023-02-28T09:15:58;98134.99;;;1.08;50.06
64139;BME280;50435;43.700;-79.318;2023-02-28T09:18:26;98123.74;;;1.34;49.79
64139;BME280;50435;43.700;-79.318;2023-02-28T09:20:54;98126.80;;;1.08;49.99
64139;BME280;50435;43.700;-79.318;2023-02-28T09:23:21;98128.56;;;1.18;49.30
64139;BME280;50435;43.700;-79.318;2023-02-28T09:25:50;98135.47;;;1.40;50.03
64139;BME280;50435;43.700;-79.318;2023-02-28T09:28:18;98136.02;;;1.33;50.21
64139;BME280;50435;43.700;-79.318;2023-02-28T09:30:48;98131.64;;;1.27;50.26
64139;BME280;50435;43.700;-79.318;2023-02-28T09:33:17;98136.23;;;1.15;50.05
64139;BME280;50435;43.700;-79.318;2023-02-28T09:35:45;98144.01;;;1.35;50.09
64139;BME280;50435;43.700;-79.318;2023-02-28T09:38:12;98149.26;;;1.19;49.94
64139;BME280;50435;43.700;-79.318;2023-02-28T09:40:47;98158.10;;;1.41;50.28
64139;BME280;50435;43.700;-79.318;2023-02-28T09:43:19;98164.05;;;0.44;50.11
64139;BME280;50435;43.700;-79.318;2023-02-28T09:45:51;98173.22;;;1.36;48.56
64139;BME280;50435;43.700;-79.318;2023-02-28T09:48:23;98172.88;;;1.55;48.71
64139;BME280;50435;43.700;-79.318;2023-02-28T09:50:59;98179.05;;;1.67;48.31
64139;BME280;50435;43.700;-79.318;2023-02-28T09:53:30;98183.60;;;1.23;48.10
64139;BME280;50435;43.700;-79.318;2023-02-28T09:56:01;98186.98;;;1.69;48.08
64139;BME280;50435;43.700;-79.318;2023-02-28T09:58:35;98195.84;;;1.73;48.20
64139;BME280;50435;43.700;-79.318;2023-02-28T10:01:20;98206.46;;;1.29;47.74
64139;BME280;50435;43.700;-79.318;2023-02-28T10:03:56;98216.65;;;1.53;47.92
64139;BME280;50435;43.700;-79.318;2023-02-28T10:06:29;98217.33;;;1.38;48.09
64139;BME280;50435;43.700;-79.318;2023-02-28T10:09:03;98216.41;;;1.57;47.80
64139;BME280;50435;43.700;-79.318;2023-02-28T10:11:34;98224.67;;;1.58;47.84
64139;BME280;50435;43.700;-79.318;2023-02-28T10:14:06;98229.34;;;1.35;47.68
64139;BME280;50435;43.700;-79.318;2023-02-28T10:16:41;98230.95;;;1.59;47.59
64139;BME280;50435;43.700;-79.318;2023-02-28T10:19:15;98232.49;;;1.64;47.72
64139;BME280;50435;43.700;-79.318;2023-02-28T10:21:47;98229.91;;;1.57;48.08
64139;BME280;50435;43.700;-79.318;2023-02-28T10:24:23;98230.94;;;1.38;47.61
64139;BME280;50435;43.700;-79.318;2023-02-28T10:27:00;98232.81;;;1.89;47.68
64139;BME280;50435;43.700;-79.318;2023-02-28T10:29:29;98237.56;;;1.94;47.61
64139;BME280;50435;43.700;-79.318;2023-02-28T10:32:01;98246.32;;;1.88;47.87
64139;BME280;50435;43.700;-79.318;2023-02-28T10:34:29;98245.27;;;1.92;47.69
64139;BME280;50435;43.700;-79.318;2023-02-28T10:36:58;98242.30;;;1.76;48.30
64139;BME280;50435;43.700;-79.318;2023-02-28T10:39:35;98246.74;;;1.31;48.55
64139;BME280;50435;43.700;-79.318;2023-02-28T10:42:04;98248.55;;;0.75;47.80
64139;BME280;50435;43.700;-79.318;2023-02-28T10:44:31;98248.47;;;1.61;47.08
64139;BME280;50435;43.700;-79.318;2023-02-28T10:46:59;98251.64;;;1.77;47.05
64139;BME280;50435;43.700;-79.318;2023-02-28T10:49:27;98254.43;;;2.01;46.96
64139;BME280;50435;43.700;-79.318;2023-02-28T10:51:56;98256.68;;;1.96;46.68
64139;BME280;50435;43.700;-79.318;2023-02-28T10:54:27;98263.67;;;1.87;46.28
64139;BME280;50435;43.700;-79.318;2023-02-28T10:57:30;98269.23;;;1.93;45.95
64139;BME280;50435;43.700;-79.318;2023-02-28T11:00:14;98266.76;;;1.78;46.64
64139;BME280;50435;43.700;-79.318;2023-02-28T11:02:43;98266.13;;;1.66;47.20
64139;BME280;50435;43.700;-79.318;2023-02-28T11:05:28;98275.80;;;2.06;47.46
64139;BME280;50435;43.700;-79.318;2023-02-28T11:08:02;98278.09;;;1.43;46.68
64139;BME280;50435;43.700;-79.318;2023-02-28T11:10:32;98277.87;;;1.57;47.02
64139;BME280;50435;43.700;-79.318;2023-02-28T11:13:00;98280.88;;;1.86;46.80
64139;BME280;50435;43.700;-79.318;2023-02-28T11:15:28;98276.82;;;1.48;46.45
64139;BME280;50435;43.700;-79.318;2023-02-28T11:17:59;98277.89;;;1.75;46.41
64139;BME280;50435;43.700;-79.318;2023-02-28T11:20:29;98279.70;;;1.61;46.67
64139;BME280;50435;43.700;-79.318;2023-02-28T11:22:59;98285.65;;;1.68;46.47
64139;BME280;50435;43.700;-79.318;2023-02-28T11:25:30;98292.48;;;1.70;46.62
64139;BME280;50435;43.700;-79.318;2023-02-28T11:28:00;98297.13;;;1.32;47.19
64139;BME280;50435;43.700;-79.318;2023-02-28T11:30:32;98302.71;;;2.01;47.42
64139;BME280;50435;43.700;-79.318;2023-02-28T11:33:00;98316.97;;;1.96;47.55
64139;BME280;50435;43.700;-79.318;2023-02-28T11:35:31;98319.48;;;1.57;46.84
64139;BME280;50435;43.700;-79.318;2023-02-28T11:37:59;98322.79;;;1.80;47.39
64139;BME280;50435;43.700;-79.318;2023-02-28T11:40:35;98330.58;;;1.78;48.07
64139;BME280;50435;43.700;-79.318;2023-02-28T11:43:17;98328.20;;;1.15;48.38
64139;BME280;50435;43.700;-79.318;2023-02-28T11:46:00;98327.23;;;1.99;47.62
64139;BME280;50435;43.700;-79.318;2023-02-28T11:48:38;98330.33;;;1.92;47.45
64139;BME280;50435;43.700;-79.318;2023-02-28T11:51:15;98333.09;;;1.52;47.12
64139;BME280;50435;43.700;-79.318;2023-02-28T11:53:56;98341.40;;;2.04;46.87
64139;BME280;50435;43.700;-79.318;2023-02-28T11:56:32;98343.96;;;1.63;47.06
64139;BME280;50435;43.700;-79.318;2023-02-28T11:59:14;98356.95;;;1.88;46.62
64139;BME280;50435;43.700;-79.318;2023-02-28T12:02:00;98373.97;;;1.83;46.65
64139;BME280;50435;43.700;-79.318;2023-02-28T12:04:42;98384.83;;;1.79;47.30
64139;BME280;50435;43.700;-79.318;2023-02-28T12:07:20;98383.98;;;2.02;47.66
64139;BME280;50435;43.700;-79.318;2023-02-28T12:10:01;98398.50;;;2.03;47.33
64139;BME280;50435;43.700;-79.318;2023-02-28T12:12:39;98397.18;;;1.52;47.61
64139;BME280;50435;43.700;-79.318;2023-02-28T12:15:29;98405.89;;;2.06;47.30
64139;BME280;50435;43.700;-79.318;2023-02-28T12:18:11;98416.44;;;2.06;47.44
64139;BME280;50435;43.700;-79.318;2023-02-28T12:20:51;98426.41;;;2.03;47.62
64139;BME280;50435;43.700;-79.318;2023-02-28T12:23:45;98428.58;;;1.56;47.47
64139;BME280;50435;43.700;-79.318;2023-02-28T12:26:20;98433.77;;;2.10;47.24
64139;BME280;50435;43.700;-79.318;2023-02-28T12:28:54;98442.31;;;2.08;47.49
64139;BME280;50435;43.700;-79.318;2023-02-28T12:31:28;98448.20;;;1.80;47.61
64139;BME280;50435;43.700;-79.318;2023-02-28T12:34:01;98454.86;;;2.03;47.95
64139;BME280;50435;43.700;-79.318;2023-02-28T12:36:29;98459.95;;;1.97;47.66
64139;BME280;50435;43.700;-79.318;2023-02-28T12:39:01;98473.08;;;1.62;48.53
64139;BME280;50435;43.700;-79.318;2023-02-28T12:41:37;98480.59;;;1.50;48.73
64139;BME280;50435;43.700;-79.318;2023-02-28T12:44:11;98489.52;;;1.44;48.58
64139;BME280;50435;43.700;-79.318;2023-02-28T12:46:43;98498.65;;;1.62;48.98
64139;BME280;50435;43.700;-79.318;2023-02-28T12:49:15;98510.58;;;1.40;48.99
64139;BME280;50435;43.700;-79.318;2023-02-28T12:51:44;98533.12;;;1.37;49.14
64139;BME280;50435;43.700;-79.318;2023-02-28T12:54:20;98532.49;;;1.37;49.32
64139;BME280;50435;43.700;-79.318;2023-02-28T12:56:56;98528.60;;;1.32;49.68
64139;BME280;50435;43.700;-79.318;2023-02-28T12:59:34;98535.86;;;1.31;49.60
64139;BME280;50435;43.700;-79.318;2023-02-28T13:02:27;98542.52;;;1.35;49.42
64139;BME280;50435;43.700;-79.318;2023-02-28T13:06:11;98548.10;;;1.56;49.65
64139;BME280;50435;43.700;-79.318;2023-02-28T13:09:03;98564.69;;;1.34;49.35
64139;BME280;50435;43.700;-79.318;2023-02-28T13:11:38;98569.39;;;1.36;49.39